Time;durP1;ratioP1;P1;durP2;ratioP2;P2;SDS_P1;SDS_P2;PMS_P1;PMS_P2;Temp;Humidity;BMP_temperature;BMP_pressure;BME280_temperature;BME280_humidity;BME280_pressure;Samples;Min_cycle;Max_cycle;Signal;HPM_P1;HPM_P2
2023/02/21 02:14:38;;;;;;;0.65;0.65;;;;;;;10.90;72.22;102114.91;5084509;27;20145;-82
2023/02/21 02:17:16;;;;;;;0.55;0.55;;;;;;;10.91;72.23;102106.94;5076154;28;20115;-83
2023/02/21 02:20:12;;;;;;;0.77;0.77;;;;;;;10.97;71.78;102098.13;5076524;28;20024;-83
2023/02/21 02:31:23;;;;;;;0.15;0.15;;;;;;;10.79;73.16;102101.66;5102259;27;20431;-84
2023/02/21 02:34:29;;;;;;;0.10;0.10;;;;;;;10.82;72.87;102088.41;5087189;28;20032;-83
2023/02/21 02:39:55;;;;;;;1.30;1.20;;;;;;;10.75;73.26;102086.63;5070081;28;20434;-83
2023/02/21 02:45:04;;;;;;;0.20;0.20;;;;;;;10.70;73.20;102088.41;5095705;27;1181274;-83
2023/02/21 02:47:35;;;;;;;1.27;1.27;;;;;;;10.75;73.34;102092.81;5126784;28;20046;-83
2023/02/21 02:50:04;;;;;;;0.15;0.15;;;;;;;10.73;73.08;102085.75;5127423;28;20027;-82
2023/02/21 02:52:30;;;;;;;0.17;0.17;;;;;;;10.68;73.35;102086.66;5130012;28;20081;-81
2023/02/21 02:54:59;;;;;;;1.23;1.23;;;;;;;10.76;73.24;102081.34;5128536;27;20051;-83
2023/02/21 02:57:29;;;;;;;1.95;1.10;;;;;;;10.72;73.57;102081.34;5125015;28;20088;-83
2023/02/21 02:59:55;;;;;;;0.30;0.30;;;;;;;10.75;73.43;102076.91;5120511;28;20032;-82
2023/02/21 03:02:36;;;;;;;0.10;0.10;;;;;;;10.82;73.36;102072.50;5122685;28;20031;-83
2023/02/21 03:13:20;;;;;;;0.47;0.47;;;;;;;10.85;72.93;102067.19;5100467;27;1173187;-82
2023/02/21 03:15:54;;;;;;;0.85;0.85;;;;;;;10.85;73.07;102069.84;5114008;28;20326;-83
2023/02/21 03:21:01;;;;;;;0.43;0.43;;;;;;;10.83;73.39;102077.78;5109296;27;1162777;-82
2023/02/21 03:23:32;;;;;;;0.93;0.90;;;;;;;10.84;72.88;102071.63;5142262;27;20384;-83
2023/02/21 03:26:02;;;;;;;1.00;0.80;;;;;;;10.84;73.23;102078.66;5122899;28;20031;-82
2023/02/21 03:28:30;;;;;;;0.20;0.20;;;;;;;10.83;73.04;102074.28;5134930;27;20031;-79
2023/02/21 03:30:58;;;;;;;0.35;0.35;;;;;;;10.81;72.77;102065.44;5144818;27;20041;-81
2023/02/21 03:33:25;;;;;;;0.75;0.75;;;;;;;10.83;72.98;102068.97;5145901;28;20034;-81
2023/02/21 03:35:52;;;;;;;0.30;0.30;;;;;;;10.82;73.11;102069.84;5114029;27;20077;-82
2023/02/21 03:38:18;;;;;;;1.17;1.17;;;;;;;10.79;73.08;102069.84;5121254;28;20035;-81
2023/02/21 03:40:44;;;;;;;1.33;1.23;;;;;;;10.75;73.35;102078.69;5124564;28;20023;-82
2023/02/21 03:43:10;;;;;;;0.43;0.43;;;;;;;10.83;73.33;102083.09;5117691;28;20533;-82
2023/02/21 03:45:37;;;;;;;1.17;1.17;;;;;;;10.82;72.80;102083.97;5119932;28;20393;-83
2023/02/21 03:48:03;;;;;;;2.20;2.10;;;;;;;10.83;72.65;102076.94;5119441;28;20494;-82
2023/02/21 03:50:29;;;;;;;0.10;0.10;;;;;;;10.79;73.09;102072.50;5128140;28;20024;-83
2023/02/21 03:52:55;;;;;;;4.25;3.85;;;;;;;10.81;72.79;102078.69;5130243;28;20073;-83
2023/02/21 03:55:21;;;;;;;1.02;1.02;;;;;;;10.75;72.92;102087.50;5129140;28;20149;-83
2023/02/21 03:57:47;;;;;;;0.98;0.98;;;;;;;10.81;72.90;102074.25;5130934;28;20026;-82
2023/02/21 04:00:14;;;;;;;0.28;0.28;;;;;;;10.80;72.90;102074.25;5124471;28;20031;-80
2023/02/21 04:02:41;;;;;;;4.10;1.83;;;;;;;10.76;73.36;102067.22;5132458;28;20096;-82
2023/02/21 04:05:07;;;;;;;0.75;0.75;;;;;;;10.79;73.31;102067.19;5129608;27;20055;-81
2023/02/21 04:07:33;;;;;;;0.20;0.20;;;;;;;10.76;72.87;102069.84;5128378;28;20031;-82
2023/02/21 04:09:59;;;;;;;1.92;1.40;;;;;;;10.80;73.01;102071.63;5127989;28;20561;-82
2023/02/21 04:12:25;;;;;;;5.22;1.45;;;;;;;10.79;72.94;102062.78;5120002;27;20096;-82
2023/02/21 04:14:51;;;;;;;0.50;0.50;;;;;;;10.80;72.84;102064.56;5126775;28;20039;-83
2023/02/21 04:17:18;;;;;;;1.58;1.48;;;;;;;10.82;73.54;102068.06;5114984;27;20028;-82
2023/02/21 04:19:44;;;;;;;1.88;1.77;;;;;;;10.79;73.46;102067.19;5120389;28;20081;-82
2023/02/21 04:22:10;;;;;;;2.00;0.75;;;;;;;10.80;73.07;102074.25;5120430;28;20522;-83
2023/02/21 04:24:36;;;;;;;1.83;1.70;;;;;;;10.80;73.26;102071.63;5122862;28;20030;-83
2023/02/21 04:27:02;;;;;;;3.20;1.23;;;;;;;10.81;73.07;102081.34;5126666;28;20050;-83
2023/02/21 04:29:28;;;;;;;0.60;0.55;;;;;;;10.77;73.29;102071.63;5126323;28;20055;-82
2023/02/21 04:31:54;;;;;;;0.60;0.60;;;;;;;10.79;73.16;102067.19;5115802;28;20486;-83
2023/02/21 04:34:21;;;;;;;0.93;0.93;;;;;;;10.78;73.35;102061.00;5098424;28;20491;-83
2023/02/21 04:36:47;;;;;;;0.50;0.50;;;;;;;10.78;73.02;102061.00;5112266;28;20402;-82
2023/02/21 04:39:13;;;;;;;2.00;1.90;;;;;;;10.80;72.88;102056.59;5096567;28;20063;-83
2023/02/21 04:41:40;;;;;;;0.35;0.35;;;;;;;10.77;73.00;102056.59;5108439;28;20603;-84
2023/02/21 04:44:06;;;;;;;1.45;0.80;;;;;;;10.77;73.19;102055.72;5103316;28;20031;-83
2023/02/21 04:46:32;;;;;;;2.17;2.00;;;;;;;10.73;73.37;102043.34;5104577;28;20522;-83
2023/02/21 04:48:58;;;;;;;2.03;1.92;;;;;;;10.71;73.42;102045.13;5113420;28;20028;-84
2023/02/21 04:51:25;;;;;;;0.65;0.65;;;;;;;10.67;73.05;102046.91;5104103;28;20043;-83
2023/02/21 04:53:53;;;;;;;0.55;0.55;;;;;;;10.65;73.46;102044.25;5109315;28;20561;-81
2023/02/21 04:56:21;;;;;;;4.78;1.23;;;;;;;10.71;73.50;102048.66;5104267;28;20032;-83
2023/02/21 04:58:48;;;;;;;0.30;0.30;;;;;;;10.64;73.27;102042.47;5106059;28;20024;-83
2023/02/21 05:01:16;;;;;;;0.10;0.10;;;;;;;10.67;73.61;102044.25;5104783;28;20074;-81
2023/02/21 05:03:43;;;;;;;1.25;1.25;;;;;;;10.68;73.34;102044.22;5110405;28;20108;-82
2023/02/21 05:06:09;;;;;;;3.30;3.05;;;;;;;10.70;73.31;102040.72;5132687;28;20012;-81
2023/02/21 05:08:35;;;;;;;0.50;0.50;;;;;;;10.63;73.58;102046.00;5131817;28;20065;-81
2023/02/21 05:11:02;;;;;;;0.90;0.90;;;;;;;10.66;73.81;102048.66;5112754;28;20101;-82
2023/02/21 05:13:28;;;;;;;0.55;0.55;;;;;;;10.68;73.18;102049.53;5103540;28;20077;-82
2023/02/21 05:15:54;;;;;;;1.23;1.17;;;;;;;10.60;74.00;102046.00;5112026;28;20031;-82
2023/02/21 05:18:22;;;;;;;1.38;1.38;;;;;;;10.63;73.98;102040.72;5112061;28;20023;-82
2023/02/21 05:20:49;;;;;;;1.90;1.80;;;;;;;10.64;73.74;102042.47;5100753;28;20498;-82
2023/02/21 05:23:17;;;;;;;2.75;1.80;;;;;;;10.61;73.62;102037.16;5101198;28;20043;-81
2023/02/21 05:25:44;;;;;;;0.65;0.65;;;;;;;10.61;74.04;102045.13;5113358;28;20024;-82
2023/02/21 05:28:10;;;;;;;1.00;1.00;;;;;;;10.65;74.09;102038.94;5107204;28;20070;-82
2023/02/21 05:30:36;;;;;;;1.85;1.75;;;;;;;10.66;73.89;102046.00;5108731;28;20046;-81
2023/02/21 05:33:02;;;;;;;0.95;0.95;;;;;;;10.70;73.58;102056.59;5114019;28;20035;-81
2023/02/21 05:35:28;;;;;;;2.58;2.38;;;;;;;10.73;73.65;102056.59;5116377;28;20035;-81
2023/02/21 05:37:54;;;;;;;0.88;0.85;;;;;;;10.73;73.58;102052.19;5115082;28;20103;-83
2023/02/21 05:40:21;;;;;;;2.20;1.10;;;;;;;10.68;73.87;102046.88;5116239;28;20035;-83
2023/02/21 05:42:47;;;;;;;9.52;3.85;;;;;;;10.66;73.83;102040.69;5113866;28;20476;-82
2023/02/21 05:45:13;;;;;;;1.45;1.13;;;;;;;10.71;73.57;102047.78;5116370;28;20318;-83
2023/02/21 05:47:39;;;;;;;0.88;0.88;;;;;;;10.72;73.60;102045.13;5114955;28;20041;-83
2023/02/21 05:50:05;;;;;;;0.50;0.50;;;;;;;10.75;73.40;102045.09;5115544;28;20051;-82
2023/02/21 05:52:31;;;;;;;1.25;1.20;;;;;;;10.75;73.43;102046.88;5113675;28;20035;-83
2023/02/21 05:54:57;;;;;;;4.47;0.75;;;;;;;10.75;73.30;102046.88;5113863;28;20046;-83
2023/02/21 05:57:24;;;;;;;0.57;0.57;;;;;;;10.77;73.60;102047.78;5116255;28;20034;-84
2023/02/21 05:59:50;;;;;;;0.40;0.40;;;;;;;10.74;73.59;102050.41;5115769;28;20111;-82
2023/02/21 06:02:16;;;;;;;0.85;0.85;;;;;;;10.79;73.20;102051.28;5115702;28;20054;-81
2023/02/21 06:04:42;;;;;;;1.48;1.38;;;;;;;10.76;73.13;102046.88;5109181;28;20031;-82
2023/02/21 06:07:08;;;;;;;0.57;0.57;;;;;;;10.79;73.54;102045.97;5116859;28;20482;-82
2023/02/21 06:09:34;;;;;;;1.48;1.42;;;;;;;10.80;73.29;102040.69;5118813;28;20034;-82
2023/02/21 06:12:00;;;;;;;1.30;1.02;;;;;;;10.81;73.39;102047.75;5107408;28;20386;-80
2023/02/21 06:14:26;;;;;;;0.20;0.20;;;;;;;10.82;73.50;102067.19;5102770;28;20491;-81
2023/02/21 06:16:52;;;;;;;0.65;0.47;;;;;;;10.85;72.85;102053.91;5112285;28;20108;-83
2023/02/21 06:19:18;;;;;;;0.20;0.20;;;;;;;10.84;73.24;102054.81;5115879;28;20019;-83
2023/02/21 06:21:45;;;;;;;0.60;0.60;;;;;;;10.81;73.09;102050.38;5107599;28;20028;-83
2023/02/21 06:24:12;;;;;;;0.13;0.13;;;;;;;10.81;73.03;102042.44;5107894;28;20036;-83
2023/02/21 06:26:41;;;;;;;0.10;0.10;;;;;;;10.82;73.26;102046.00;5106651;28;20144;-82
2023/02/21 06:29:07;;;;;;;0.38;0.38;;;;;;;10.79;73.03;102053.94;5106085;28;20024;-84
2023/02/21 06:31:35;;;;;;;5.80;2.88;;;;;;;10.79;73.13;102060.13;5111053;28;20024;-83
2023/02/21 06:34:01;;;;;;;1.38;1.27;;;;;;;10.74;73.20;102066.31;5110180;28;20055;-82
2023/02/21 06:36:28;;;;;;;0.30;0.30;;;;;;;10.79;73.37;102067.19;5113341;28;20032;-83
2023/02/21 06:38:55;;;;;;;1.25;1.25;;;;;;;10.81;73.40;102071.59;5108889;28;20102;-83
2023/02/21 06:41:26;;;;;;;1.30;1.30;;;;;;;10.83;73.32;102068.97;5117968;28;20043;-83
2023/02/21 06:43:53;;;;;;;0.40;0.40;;;;;;;10.86;73.11;102063.66;5129103;28;20043;-82
2023/02/21 06:46:22;;;;;;;0.43;0.43;;;;;;;10.89;73.40;102066.31;5122416;28;20478;-82
2023/02/21 06:48:49;;;;;;;2.53;1.80;;;;;;;10.91;73.18;102067.16;5109616;28;20044;-83
2023/02/21 06:51:16;;;;;;;0.47;0.47;;;;;;;10.91;72.87;102061.88;5108453;28;20478;-82
2023/02/21 06:53:43;;;;;;;4.30;0.82;;;;;;;10.92;72.86;102068.94;5109543;28;20061;-85
2023/02/21 06:56:09;;;;;;;4.65;1.98;;;;;;;10.93;73.21;102076.03;5109391;28;20470;-83
2023/02/21 06:58:35;;;;;;;5.15;1.50;;;;;;;10.95;73.09;102068.06;5121961;28;20027;-83
2023/02/21 07:01:02;;;;;;;0.20;0.20;;;;;;;10.95;72.82;102076.91;5120736;28;20032;-81
2023/02/21 07:03:29;;;;;;;0.52;0.52;;;;;;;10.96;72.68;102076.00;5117352;28;20114;-84
2023/02/21 07:05:55;;;;;;;0.60;0.60;;;;;;;10.95;72.69;102068.97;5119149;28;20039;-84
2023/02/21 07:08:21;;;;;;;3.72;2.15;;;;;;;10.94;72.82;102067.19;5114432;28;20107;-82
2023/02/21 07:10:47;;;;;;;2.33;2.10;;;;;;;10.95;72.93;102068.97;5118603;28;20027;-84
2023/02/21 07:13:13;;;;;;;0.20;0.20;;;;;;;10.92;73.07;102070.72;5109165;28;20035;-82
2023/02/21 07:15:39;;;;;;;1.23;1.23;;;;;;;10.94;72.69;102076.88;5108893;28;20041;-82
2023/02/21 07:18:05;;;;;;;1.08;1.08;;;;;;;10.93;72.62;102069.81;5111159;28;20066;-81
2023/02/21 07:20:32;;;;;;;2.15;0.82;;;;;;;10.96;72.87;102069.81;5113941;28;20040;-84
2023/02/21 07:22:58;;;;;;;1.00;1.00;;;;;;;10.95;72.77;102068.97;5113624;28;20103;-83
2023/02/21 07:25:24;;;;;;;0.45;0.45;;;;;;;10.97;72.93;102071.59;5106512;28;20712;-84
2023/02/21 07:27:59;;;;;;;4.70;1.58;;;;;;;10.97;73.08;102061.84;5099200;28;20502;-83
2023/02/21 07:30:25;;;;;;;0.10;0.10;;;;;;;10.98;73.06;102063.63;5104327;28;20058;-83
2023/02/21 07:32:51;;;;;;;0.22;0.22;;;;;;;10.99;72.76;102061.84;5105922;28;20035;-83
2023/02/21 07:35:17;;;;;;;0.20;0.20;;;;;;;10.98;73.14;102074.25;5104990;28;20035;-84
2023/02/21 07:37:43;;;;;;;1.67;0.93;;;;;;;10.99;73.10;102069.81;5104864;28;20035;-83
2023/02/21 07:40:10;;;;;;;2.63;1.80;;;;;;;11.03;73.13;102075.97;5106064;28;20024;-82
2023/02/21 07:42:36;;;;;;;0.77;0.77;;;;;;;11.03;72.90;102070.69;5113462;28;20027;-83
2023/02/21 07:45:02;;;;;;;2.05;1.95;;;;;;;11.06;72.92;102070.69;5108560;28;20517;-81
2023/02/21 07:47:29;;;;;;;0.30;0.30;;;;;;;11.07;73.08;102067.16;5110221;28;20031;-82
2023/02/21 07:49:55;;;;;;;0.55;0.55;;;;;;;11.09;72.66;102068.00;5110952;28;20019;-83
2023/02/21 07:52:22;;;;;;;1.65;1.55;;;;;;;11.09;72.78;102075.97;5112204;28;20375;-83
2023/02/21 07:54:48;;;;;;;0.45;0.45;;;;;;;11.08;73.08;102063.59;5111676;28;20031;-84
2023/02/21 07:57:16;;;;;;;0.32;0.32;;;;;;;11.04;72.77;102059.19;5107836;28;20047;-84
2023/02/21 07:59:42;;;;;;;1.05;1.05;;;;;;;11.03;72.59;102071.59;5114192;28;20068;-83
2023/02/21 08:02:11;;;;;;;2.72;1.42;;;;;;;11.01;72.86;102078.66;5111267;28;20048;-82
2023/02/21 08:04:37;;;;;;;3.33;3.03;;;;;;;11.01;72.93;102073.34;5112954;28;20015;-84
2023/02/21 08:07:04;;;;;;;1.35;1.27;;;;;;;11.03;72.98;102075.97;5109696;28;20027;-83
2023/02/21 08:09:31;;;;;;;1.33;1.33;;;;;;;11.06;73.02;102071.56;5110671;28;20031;-81
2023/02/21 08:11:57;;;;;;;0.68;0.68;;;;;;;11.03;72.68;102065.38;5114388;28;20035;-80
2023/02/21 08:14:23;;;;;;;6.43;1.17;;;;;;;11.00;72.66;102077.78;5112113;28;20032;-82
2023/02/21 08:16:49;;;;;;;1.02;1.02;;;;;;;11.03;73.18;102068.03;5110553;28;20035;-83
2023/02/21 08:19:15;;;;;;;2.35;2.08;;;;;;;11.05;72.75;102074.22;5114149;28;20092;-81
2023/02/21 08:21:49;;;;;;;1.58;1.48;;;;;;;11.06;73.36;102087.47;5122653;28;20047;-81
2023/02/21 08:24:16;;;;;;;1.05;1.05;;;;;;;11.03;73.14;102074.25;5115599;28;20035;-83
2023/02/21 08:26:44;;;;;;;0.85;0.85;;;;;;;11.03;72.98;102081.28;5119646;28;20111;-82
2023/02/21 08:29:11;;;;;;;0.50;0.50;;;;;;;11.07;73.20;102083.06;5119024;28;20020;-83
2023/02/21 08:31:38;;;;;;;0.50;0.50;;;;;;;11.05;73.25;102082.19;5118091;28;20027;-84
2023/02/21 08:34:06;;;;;;;0.38;0.38;;;;;;;11.05;73.25;102084.84;5108065;28;20024;-83
2023/02/21 08:36:34;;;;;;;0.40;0.40;;;;;;;11.09;73.21;102087.47;5116731;28;20031;-81
2023/02/21 08:39:04;;;;;;;0.50;0.50;;;;;;;11.06;72.74;102082.16;5118089;28;20053;-82
2023/02/21 08:41:41;;;;;;;1.90;1.50;;;;;;;11.14;73.18;102090.09;5119594;28;20034;-84
2023/02/21 08:44:08;;;;;;;2.42;2.28;;;;;;;11.09;73.15;102092.78;5124830;28;20016;-82
2023/02/21 08:46:34;;;;;;;4.25;3.45;;;;;;;11.05;72.63;102084.84;5120000;28;20031;-82
2023/02/21 08:49:04;;;;;;;2.08;1.40;;;;;;;11.07;73.02;102080.41;5116293;28;20023;-82
2023/02/21 08:51:31;;;;;;;0.20;0.20;;;;;;;11.07;72.66;102081.28;5117134;28;20031;-82
2023/02/21 08:53:58;;;;;;;0.82;0.82;;;;;;;11.03;73.23;102071.59;5116754;28;20477;-82
2023/02/21 08:56:25;;;;;;;0.40;0.40;;;;;;;11.00;73.14;102071.56;5116223;28;20023;-81
2023/02/21 08:58:53;;;;;;;2.08;1.98;;;;;;;11.01;72.74;102073.34;5115069;28;20041;-82
2023/02/21 09:01:21;;;;;;;0.25;0.25;;;;;;;10.98;72.75;102078.66;5116000;28;20595;-83
2023/02/21 09:03:47;;;;;;;3.15;2.72;;;;;;;11.00;73.14;102077.78;5115345;28;20032;-83
2023/02/21 09:06:13;;;;;;;1.27;1.27;;;;;;;11.00;73.11;102079.53;5116331;28;20076;-82
2023/02/21 09:08:40;;;;;;;0.20;0.20;;;;;;;10.96;73.04;102070.69;5116869;28;20031;-84
2023/02/21 09:11:06;;;;;;;0.20;0.20;;;;;;;11.00;73.23;102080.44;5115285;28;20020;-83
2023/02/21 09:13:32;;;;;;;1.83;1.70;;;;;;;11.00;73.40;102075.13;5110808;28;20474;-82
2023/02/21 09:16:00;;;;;;;0.47;0.47;;;;;;;11.03;72.88;102070.69;5116008;28;20057;-84
2023/02/21 09:18:27;;;;;;;2.30;1.95;;;;;;;11.03;73.13;102068.03;5108366;28;20401;-84
2023/02/21 09:20:56;;;;;;;1.38;1.38;;;;;;;11.03;72.97;102068.94;5105918;28;20402;-85
2023/02/21 09:23:24;;;;;;;1.00;1.00;;;;;;;11.06;72.94;102066.25;5116198;28;20019;-84
2023/02/21 09:25:52;;;;;;;0.50;0.50;;;;;;;11.03;73.15;102063.63;5115381;28;20023;-84
2023/02/21 09:28:18;;;;;;;1.38;1.38;;;;;;;11.04;73.48;102072.44;5117277;28;20049;-83
2023/02/21 09:30:45;;;;;;;1.00;1.00;;;;;;;11.06;73.38;102060.94;5116920;28;20088;-84
2023/02/21 09:33:11;;;;;;;0.57;0.50;;;;;;;11.10;73.39;102061.84;5112255;28;20403;-82
2023/02/21 09:35:37;;;;;;;4.63;2.17;;;;;;;11.10;73.37;102060.06;5106490;28;20035;-82
2023/02/21 09:38:06;;;;;;;0.22;0.22;;;;;;;11.13;73.19;102049.44;5106515;28;20026;-84
2023/02/21 09:43:17;;;;;;;1.27;1.27;;;;;;;11.18;73.62;102044.13;5075063;27;1827725;-85
2023/02/21 09:45:44;;;;;;;1.02;1.02;;;;;;;11.17;73.28;102042.38;5108268;28;20024;-83
2023/02/21 09:48:16;;;;;;;0.60;0.60;;;;;;;11.21;73.33;102046.75;5112110;28;20047;-84
2023/02/21 09:50:48;;;;;;;2.42;2.22;;;;;;;11.24;73.39;102043.22;5110350;28;20023;-82
2023/02/21 09:53:19;;;;;;;;;;;;;;;11.38;73.05;102045.84;5107920;28;20028;-81
2023/02/21 09:55:47;;;;;;;0.28;0.28;;;;;;;11.26;73.10;102046.75;5108403;28;19920;-81
2023/02/21 09:58:16;;;;;;;4.43;1.45;;;;;;;11.28;72.81;102048.50;5121631;28;20046;-80
2023/02/21 10:00:42;;;;;;;0.35;0.35;;;;;;;11.27;72.97;102043.22;5122526;28;20031;-82
2023/02/21 10:06:35;;;;;;;0.45;0.45;;;;;;;11.25;73.12;102047.63;5062646;28;20362;-82
2023/02/21 10:09:15;;;;;;;0.73;0.73;;;;;;;11.25;72.88;102050.28;5048454;28;20282;-82
2023/02/21 10:11:56;;;;;;;13.15;1.50;;;;;;;11.23;72.93;102042.34;5048600;28;20040;-83
2023/02/21 10:17:32;;;;;;;1.83;1.17;;;;;;;11.24;73.41;102038.81;5120905;27;1160451;-81
2023/02/21 10:20:04;;;;;;;0.30;0.30;;;;;;;11.20;73.03;102036.16;5130623;27;20303;-81
2023/02/21 10:22:36;;;;;;;1.10;1.10;;;;;;;11.16;73.60;102041.50;5135589;27;20023;-82
2023/02/21 10:25:20;;;;;;;0.60;0.60;;;;;;;11.25;73.56;102035.28;5113232;28;20024;-81
2023/02/21 10:27:46;;;;;;;1.38;1.38;;;;;;;11.19;73.05;102037.03;5105573;28;20024;-82
2023/02/21 10:30:29;;;;;;;0.65;0.65;;;;;;;11.20;73.30;102031.72;5110198;28;20020;-82
2023/02/21 10:32:56;;;;;;;1.00;1.00;;;;;;;11.15;73.39;102037.06;5104329;28;20023;-83
2023/02/21 10:35:22;;;;;;;1.67;1.58;;;;;;;11.16;73.78;102040.59;5108451;28;20039;-81
2023/02/21 10:37:55;;;;;;;0.40;0.40;;;;;;;11.14;74.04;102034.41;5109788;28;20088;-81
2023/02/21 10:43:07;;;;;;;0.82;0.82;;;;;;;11.14;73.70;102031.75;5124582;27;20426;-82
2023/02/21 10:45:39;;;;;;;2.50;2.40;;;;;;;11.03;73.82;102031.81;5091274;28;20031;-83
2023/02/21 10:48:09;;;;;;;1.05;1.05;;;;;;;11.02;73.49;102030.03;5089516;28;20501;-81
2023/02/21 10:50:39;;;;;;;0.20;0.20;;;;;;;11.00;73.90;102035.34;5089988;28;20465;-82
2023/02/21 10:53:07;;;;;;;0.20;0.20;;;;;;;11.00;74.34;102038.00;5089425;28;20440;-82
2023/02/21 10:55:33;;;;;;;0.63;0.63;;;;;;;11.02;74.07;102031.81;5090924;28;20020;-83
2023/02/21 10:58:08;;;;;;;5.57;2.03;;;;;;;11.02;74.04;102042.44;5090426;28;20085;-81
2023/02/21 11:05:56;;;;;;;0.20;0.20;;;;;;;11.02;73.79;102032.69;5140865;27;20378;-84
2023/02/21 11:08:43;;;;;;;2.75;2.15;;;;;;;11.15;74.30;102022.91;5132785;27;20057;-82
2023/02/21 11:11:10;;;;;;;3.92;1.75;;;;;;;11.12;74.66;102022.94;5136959;27;20022;-83
2023/02/21 11:13:39;;;;;;;0.73;0.73;;;;;;;11.19;73.93;102027.34;5128139;27;20024;-82
2023/02/21 11:16:21;;;;;;;0.20;0.20;;;;;;;11.28;74.42;102029.06;5122099;28;20084;-82
2023/02/21 11:19:04;;;;;;;0.30;0.30;;;;;;;11.30;74.09;102017.56;5125914;28;20122;-83
2023/02/21 11:21:31;;;;;;;1.35;1.35;;;;;;;11.22;73.83;102015.81;5133606;27;20020;-84
2023/02/21 11:24:01;;;;;;;0.28;0.28;;;;;;;11.25;73.59;102014.06;5132907;27;20031;-82
2023/02/21 11:26:34;;;;;;;1.10;1.05;;;;;;;11.22;73.86;102016.69;5133885;28;20019;-82
2023/02/21 11:29:22;;;;;;;1.70;1.60;;;;;;;11.29;73.89;102010.47;5132299;28;20062;-84
2023/02/21 11:31:49;;;;;;;1.65;1.55;;;;;;;11.22;74.04;102007.88;5133799;27;20043;-83
2023/02/21 11:34:18;;;;;;;2.50;2.30;;;;;;;11.21;73.73;102008.75;5143350;27;20019;-81
2023/02/21 11:36:48;;;;;;;0.45;0.45;;;;;;;11.17;74.26;102008.75;5135578;28;20039;-83
2023/02/21 11:39:17;;;;;;;0.63;0.63;;;;;;;11.15;73.71;102002.59;5122725;28;20023;-82
2023/02/21 11:41:50;;;;;;;3.80;0.57;;;;;;;11.12;73.78;102005.22;5124471;28;20611;-82
2023/02/21 11:44:38;;;;;;;0.65;0.65;;;;;;;11.20;74.01;102005.19;5115686;28;20032;-84
2023/02/21 11:47:28;;;;;;;0.45;0.45;;;;;;;11.26;74.12;102004.31;5122276;28;20039;-85
2023/02/21 11:50:23;;;;;;;0.35;0.35;;;;;;;11.27;74.14;102006.06;5132876;27;20039;-81
2023/02/21 11:55:29;;;;;;;0.75;0.75;;;;;;;11.31;74.11;102002.50;5101386;27;1188480;-83
2023/02/21 12:11:45;;;;;;;1.85;1.75;;;;;;;11.42;73.75;101995.38;5083902;27;20394;-83
2023/02/21 12:23:16;;;;;;;2.28;2.17;;;;;;;11.45;73.41;101989.16;5093020;27;20408;-83
2023/02/21 12:37:45;;;;;;;1.20;1.20;;;;;;;11.63;72.63;101978.44;5108482;27;20347;-82
2023/02/21 12:40:41;;;;;;;0.10;0.10;;;;;;;11.63;72.12;101975.78;5090347;28;20032;-84
2023/02/21 12:48:48;;;;;;;0.17;0.17;;;;;;;11.51;71.96;101973.22;5112864;27;20418;-84
2023/02/21 12:51:24;;;;;;;0.15;0.15;;;;;;;11.49;71.57;101969.72;5102416;28;20517;-80
2023/02/21 12:53:59;;;;;;;1.85;1.75;;;;;;;11.48;71.84;101960.84;5096069;28;20051;-84
2023/02/21 12:59:27;;;;;;;0.65;0.65;;;;;;;11.60;71.81;101962.56;5097718;27;1189728;-84
2023/02/21 13:02:20;;;;;;;0.30;0.30;;;;;;;11.68;71.80;101962.50;5134336;27;20038;-84
2023/02/21 13:04:51;;;;;;;;;;;;;;;11.73;71.04;101957.16;5116918;28;20608;-82
2023/02/21 13:07:42;;;;;;;0.00;0.00;;;;;;;11.68;71.05;101956.31;5116381;28;19911;-83
2023/02/21 13:10:28;;;;;;;0.57;0.57;;;;;;;11.69;70.94;101950.09;5121373;28;20035;-84
2023/02/21 13:15:30;;;;;;;0.63;0.63;;;;;;;11.61;71.36;101961.66;5063652;28;20419;-84
2023/02/21 13:18:03;;;;;;;0.15;0.15;;;;;;;11.59;71.38;101946.63;5058988;28;20029;-81
2023/02/21 13:20:38;;;;;;;0.17;0.17;;;;;;;11.63;71.25;101951.03;5044926;28;21651;-83
2023/02/21 13:23:07;;;;;;;2.15;1.30;;;;;;;11.64;71.55;101953.69;5054310;28;20112;-82
2023/02/21 13:25:54;;;;;;;0.10;0.10;;;;;;;11.70;71.09;101952.75;5051936;28;20033;-83
2023/02/21 13:28:23;;;;;;;0.30;0.30;;;;;;;11.67;70.89;101947.47;5037291;28;20127;-85
2023/02/21 13:30:56;;;;;;;0.73;0.73;;;;;;;11.69;70.63;101944.78;5039119;28;20026;-82
2023/02/21 13:33:43;;;;;;;0.25;0.25;;;;;;;11.78;70.49;101942.09;5053183;28;20036;-85
2023/02/21 13:39:21;;;;;;;0.10;0.10;;;;;;;11.76;70.12;101935.88;5115292;27;20893;-85
2023/02/21 13:41:54;;;;;;;0.95;0.95;;;;;;;11.72;70.03;101940.34;5103908;28;20081;-82
2023/02/21 13:44:29;;;;;;;0.30;0.30;;;;;;;11.71;70.13;101932.41;5111572;28;20038;-82
2023/02/21 13:49:47;;;;;;;0.10;0.10;;;;;;;11.64;69.90;101931.56;5105483;27;20393;-84
2023/02/21 13:57:55;;;;;;;0.20;0.20;;;;;;;11.55;70.30;101928.97;5090894;27;20409;-83
2023/02/21 14:08:44;;;;;;;0.20;0.20;;;;;;;11.49;69.65;101922.81;5112578;27;20397;-81
2023/02/21 14:11:18;;;;;;;0.10;0.10;;;;;;;11.46;69.98;101921.94;5109809;28;20044;-83
2023/02/21 14:19:00;;;;;;;0.10;0.10;;;;;;;11.55;69.62;101915.69;5130288;27;1168821;-81
2023/02/21 14:21:39;;;;;;;0.10;0.10;;;;;;;11.56;68.60;101907.72;5138927;28;20269;-82
2023/02/21 14:24:15;;;;;;;0.10;0.10;;;;;;;11.53;69.09;101912.19;5133195;27;20007;-81
2023/02/21 14:29:40;;;;;;;0.38;0.38;;;;;;;11.54;69.19;101911.25;5107334;27;20406;-83
2023/02/21 15:03:11;;;;;;;0.15;0.15;;;;;;;11.17;68.54;101899.13;5113708;27;20388;-83
2023/02/21 15:08:24;;;;;;;0.10;0.10;;;;;;;11.08;68.63;101894.75;5051718;28;20399;-84
2023/02/21 15:10:58;;;;;;;1.38;0.98;;;;;;;11.07;68.49;101892.97;5052626;28;20569;-83
2023/02/21 15:13:30;;;;;;;0.13;0.13;;;;;;;11.01;68.39;101893.00;5045607;28;20088;-83
2023/02/21 15:16:06;;;;;;;0.52;0.52;;;;;;;11.03;68.41;101890.34;5043568;28;20044;-84
2023/02/21 15:18:35;;;;;;;0.45;0.45;;;;;;;10.98;68.56;101891.25;5046882;28;20017;-84
2023/02/21 15:21:19;;;;;;;0.43;0.43;;;;;;;11.02;68.77;101893.91;5053326;28;20048;-84
2023/02/21 15:23:48;;;;;;;0.70;0.70;;;;;;;10.93;69.05;101895.72;5044101;28;20028;-84
2023/02/21 15:26:31;;;;;;;0.30;0.30;;;;;;;10.93;68.53;101895.72;5049549;28;20394;-84
2023/02/21 15:29:16;;;;;;;0.57;0.57;;;;;;;10.93;68.47;101889.50;5053643;28;20033;-84
2023/02/21 15:31:59;;;;;;;1.05;0.98;;;;;;;10.92;68.23;101888.63;5042027;28;20022;-84
2023/02/21 15:34:33;;;;;;;0.63;0.63;;;;;;;10.86;68.80;101891.31;5052377;28;20036;-84
2023/02/21 15:37:23;;;;;;;0.20;0.20;;;;;;;10.89;68.50;101895.72;5053956;28;20025;-84
2023/02/21 15:39:54;;;;;;;0.30;0.30;;;;;;;10.86;68.46;101887.78;5055754;28;20025;-84
2023/02/21 15:42:21;;;;;;;0.50;0.50;;;;;;;10.78;67.92;101895.75;5057562;28;20030;-84
2023/02/21 15:44:55;;;;;;;0.10;0.10;;;;;;;10.77;68.18;101894.88;5067350;28;20013;-84
2023/02/21 15:47:24;;;;;;;2.05;1.95;;;;;;;10.81;68.68;101880.72;5065273;28;20021;-84
2023/02/21 15:52:52;;;;;;;1.35;1.35;;;;;;;10.83;68.26;101880.75;5072818;28;20402;-84
2023/02/21 16:00:46;;;;;;;0.52;0.52;;;;;;;10.85;68.70;101876.28;5089040;27;20414;-83
2023/02/21 16:12:28;;;;;;;0.10;0.10;;;;;;;10.79;68.83;101871.00;5095964;27;20761;-81
2023/02/21 16:15:19;;;;;;;0.10;0.10;;;;;;;10.76;68.65;101873.69;5088170;28;20028;-79
2023/02/21 16:17:51;;;;;;;0.10;0.10;;;;;;;10.73;69.01;101868.38;5080179;28;20037;-83
2023/02/21 16:20:23;;;;;;;0.20;0.20;;;;;;;10.71;68.81;101872.84;5080866;28;20084;-80
2023/02/21 16:23:09;;;;;;;;;;;;;;;10.78;68.22;101874.53;5079518;28;20047;-83
2023/02/21 16:25:52;;;;;;;0.20;0.20;;;;;;;10.62;68.75;101874.63;5086525;28;19934;-82
2023/02/21 16:28:19;;;;;;;0.63;0.63;;;;;;;10.65;68.75;101858.72;5107230;28;20024;-82
2023/02/21 16:30:45;;;;;;;0.45;0.45;;;;;;;10.65;69.11;101866.69;5106451;28;20028;-82
2023/02/21 16:33:12;;;;;;;0.25;0.25;;;;;;;10.70;69.10;101860.47;5082787;28;20043;-82
2023/02/21 16:35:39;;;;;;;0.13;0.13;;;;;;;10.72;68.94;101853.41;5083472;28;20537;-83
2023/02/21 16:38:07;;;;;;;0.50;0.50;;;;;;;10.74;68.90;101859.56;5080297;28;20085;-83
2023/02/21 16:40:35;;;;;;;0.77;0.77;;;;;;;10.73;69.06;101860.44;5099581;28;20033;-81